Time;durP1;ratioP1;P1;durP2;ratioP2;P2;SDS_P1;SDS_P2;PMS_P1;PMS_P2;Temp;Humidity;BMP_temperature;BMP_pressure;BME280_temperature;BME280_humidity;BME280_pressure;Samples;Min_cycle;Max_cycle;Signal;HPM_P1;HPM_P2
2023/06/10 00:00:51;;;;;;;36.93;33.07;;;;;;;;;;4960646;29;20482;-83
2023/06/10 00:03:18;;;;;;;39.20;31.80;;;;;;;;;;4946785;29;20478;-85
2023/06/10 00:05:46;;;;;;;35.13;31.30;;;;;;;;;;4963915;29;20444;-82
2023/06/10 00:08:15;;;;;;;39.23;35.13;;;;;;;;;;4962724;28;20457;-83
2023/06/10 00:10:43;;;;;;;40.50;32.50;;;;;;;;;;4964610;28;20452;-88
2023/06/10 00:13:11;;;;;;;40.30;34.10;;;;;;;;;;4958034;29;20858;-84
2023/06/10 00:15:40;;;;;;;38.33;32.80;;;;;;;;;;4953502;28;20483;-86
2023/06/10 00:18:15;;;;;;;38.40;33.30;;;;;;;;;;4960822;29;20443;-87
2023/06/10 00:20:48;;;;;;;36.07;32.03;;;;;;;;;;4948771;28;20431;-87
2023/06/10 00:23:43;;;;;;;37.73;31.87;;;;;;;;;;4963268;28;20519;-89
2023/06/10 00:26:16;;;;;;;36.60;32.80;;;;;;;;;;4950885;28;20597;-89
2023/06/10 00:28:47;;;;;;;34.80;30.50;;;;;;;;;;4953147;28;20449;-87
2023/06/10 00:31:15;;;;;;;36.57;32.77;;;;;;;;;;4972797;28;20445;-86
2023/06/10 00:33:48;;;;;;;32.77;29.43;;;;;;;;;;4969368;28;20457;-85
2023/06/10 00:36:16;;;;;;;36.97;32.77;;;;;;;;;;4949094;29;20517;-86
2023/06/10 00:38:44;;;;;;;37.80;33.50;;;;;;;;;;4962210;28;20946;-86
2023/06/10 00:41:12;;;;;;;36.87;33.20;;;;;;;;;;4954316;29;20480;-86
2023/06/10 00:43:41;;;;;;;37.10;33.30;;;;;;;;;;4955043;28;20453;-86
2023/06/10 00:46:09;;;;;;;32.00;28.57;;;;;;;;;;4960572;29;20451;-85
2023/06/10 00:48:45;;;;;;;39.87;30.93;;;;;;;;;;4960657;28;20470;-87
2023/06/10 00:51:15;;;;;;;33.63;30.13;;;;;;;;;;4953863;29;20468;-86
2023/06/10 00:53:43;;;;;;;33.23;29.87;;;;;;;;;;4960802;28;20520;-86
2023/06/10 00:56:13;;;;;;;36.13;29.67;;;;;;;;;;4957239;28;20500;-85
2023/06/10 00:58:45;;;;;;;36.10;32.20;;;;;;;;;;4964032;29;20506;-85
2023/06/10 01:01:13;;;;;;;36.83;31.17;;;;;;;;;;4961880;28;20463;-87
2023/06/10 01:03:45;;;;;;;35.57;31.23;;;;;;;;;;4968332;28;20487;-86
2023/06/10 01:06:21;;;;;;;36.23;32.33;;;;;;;;;;4962029;28;20453;-87
2023/06/10 01:09:05;;;;;;;33.93;28.93;;;;;;;;;;4959360;28;20445;-86
2023/06/10 01:11:41;;;;;;;32.53;28.97;;;;;;;;;;4951755;28;20634;-86
2023/06/10 01:14:10;;;;;;;33.40;28.83;;;;;;;;;;4952305;28;20460;-86
2023/06/10 01:16:40;;;;;;;35.53;29.17;;;;;;;;;;4949557;29;20550;-85
2023/06/10 01:19:09;;;;;;;32.90;29.60;;;;;;;;;;4959174;28;20536;-86
2023/06/10 01:21:42;;;;;;;32.40;29.00;;;;;;;;;;4948483;28;20573;-87
2023/06/10 01:24:14;;;;;;;34.43;27.73;;;;;;;;;;4956302;28;20803;-87
2023/06/10 01:26:46;;;;;;;33.33;27.83;;;;;;;;;;4946619;29;20441;-86
2023/06/10 01:29:25;;;;;;;32.53;29.03;;;;;;;;;;4957331;29;20432;-88
2023/06/10 01:32:10;;;;;;;30.90;27.73;;;;;;;;;;4961129;29;20466;-89
2023/06/10 01:34:43;;;;;;;31.00;27.80;;;;;;;;;;4962555;28;20492;-87
2023/06/10 01:37:18;;;;;;;31.47;28.17;;;;;;;;;;4950926;29;20472;-89
2023/06/10 01:39:47;;;;;;;32.67;28.17;;;;;;;;;;4963060;28;20690;-87
2023/06/10 01:42:18;;;;;;;31.07;27.77;;;;;;;;;;4951398;28;20457;-87
2023/06/10 01:44:46;;;;;;;31.80;28.07;;;;;;;;;;4953706;28;20965;-84
2023/06/10 01:47:15;;;;;;;32.60;28.33;;;;;;;;;;4951726;29;20492;-89
2023/06/10 01:49:44;;;;;;;31.67;26.90;;;;;;;;;;4964966;28;20420;-87
2023/06/10 01:52:15;;;;;;;36.87;29.30;;;;;;;;;;4958602;28;20641;-85
2023/06/10 01:54:42;;;;;;;30.63;27.30;;;;;;;;;;4953440;29;20426;-85
2023/06/10 01:57:11;;;;;;;30.77;26.30;;;;;;;;;;4955971;28;20589;-87
2023/06/10 01:59:39;;;;;;;29.07;26.27;;;;;;;;;;4955606;29;20427;-85
2023/06/10 02:02:07;;;;;;;29.30;26.30;;;;;;;;;;4957443;29;20426;-84
2023/06/10 02:04:39;;;;;;;31.40;27.03;;;;;;;;;;4955090;29;20441;-91
2023/06/10 02:07:13;;;;;;;30.30;27.13;;;;;;;;;;4950256;28;20441;-87
2023/06/10 02:09:40;;;;;;;32.53;29.00;;;;;;;;;;4957006;28;20426;-84
2023/06/10 02:12:13;;;;;;;35.50;30.80;;;;;;;;;;4951237;29;20443;-84
2023/06/10 02:14:45;;;;;;;30.00;27.00;;;;;;;;;;4958812;29;20447;-83
2023/06/10 02:17:14;;;;;;;30.57;27.40;;;;;;;;;;4951953;28;20486;-84
2023/06/10 02:19:42;;;;;;;33.73;28.57;;;;;;;;;;4947274;29;20447;-87
2023/06/10 02:22:10;;;;;;;30.73;27.90;;;;;;;;;;4949001;28;20618;-85
2023/06/10 02:24:37;;;;;;;29.80;26.80;;;;;;;;;;4960820;29;20452;-85
2023/06/10 02:27:06;;;;;;;33.90;27.23;;;;;;;;;;4960206;29;20490;-85
2023/06/10 02:29:35;;;;;;;30.03;26.87;;;;;;;;;;4951507;29;20448;-85
2023/06/10 02:32:03;;;;;;;29.77;26.67;;;;;;;;;;4950820;28;20787;-84
2023/06/10 02:37:36;;;;;;;27.73;25.00;;;;;;;;;;4955277;29;20511;-86
2023/06/10 02:40:04;;;;;;;29.50;26.50;;;;;;;;;;4943220;29;20768;-88
2023/06/10 02:42:34;;;;;;;27.27;24.67;;;;;;;;;;4949410;29;20601;-82
2023/06/10 02:45:18;;;;;;;26.93;24.33;;;;;;;;;;4947307;29;20452;-88
2023/06/10 02:50:21;;;;;;;27.17;24.37;;;;;;;;;;4951179;29;20449;-85
2023/06/10 02:52:50;;;;;;;28.67;25.97;;;;;;;;;;4950480;29;20444;-89
2023/06/10 02:55:20;;;;;;;46.07;26.70;;;;;;;;;;4934823;29;20446;-84
2023/06/10 02:57:47;;;;;;;32.00;26.23;;;;;;;;;;4946058;29;20612;-84
2023/06/10 03:00:16;;;;;;;27.67;24.93;;;;;;;;;;4943501;29;20478;-88
2023/06/10 03:05:32;;;;;;;28.50;24.67;;;;;;;;;;5018853;23;20496;-89
2023/06/10 03:08:32;;;;;;;29.67;26.67;;;;;;;;;;5013194;23;20502;-88
2023/06/10 03:11:16;;;;;;;29.00;26.10;;;;;;;;;;4926024;29;20451;-88
2023/06/10 03:13:50;;;;;;;31.60;26.47;;;;;;;;;;4927871;29;20469;-88
2023/06/10 03:16:21;;;;;;;31.90;26.57;;;;;;;;;;4930552;29;20545;-88
2023/06/10 03:18:51;;;;;;;29.23;26.33;;;;;;;;;;4924693;29;20492;-86
2023/06/10 03:21:27;;;;;;;26.10;23.30;;;;;;;;;;5237414;23;21791;-88
2023/06/10 03:23:56;;;;;;;26.57;24.07;;;;;;;;;;5724684;23;20786;-88
2023/06/10 03:26:36;;;;;;;27.67;25.03;;;;;;;;;;4914644;29;20481;-88
2023/06/10 03:29:11;;;;;;;29.43;26.80;;;;;;;;;;5438221;23;20508;-89
2023/06/10 03:31:39;;;;;;;25.43;22.80;;;;;;;;;;4916139;29;20547;-90
2023/06/10 03:34:08;;;;;;;27.07;24.17;;;;;;;;;;4911734;29;20463;-89
2023/06/10 03:36:38;;;;;;;28.30;25.30;;;;;;;;;;4917558;29;20495;-90
2023/06/10 03:39:15;;;;;;;27.07;24.53;;;;;;;;;;4901703;29;20409;-87
2023/06/10 03:41:44;;;;;;;26.83;24.27;;;;;;;;;;4920642;29;20443;-88
2023/06/10 03:44:12;;;;;;;26.37;23.43;;;;;;;;;;4904156;29;20435;-88
2023/06/10 03:49:29;;;;;;;24.70;22.30;;;;;;;;;;4941702;29;20459;-88
2023/06/10 03:51:57;;;;;;;24.90;22.40;;;;;;;;;;4946921;29;20492;-87
2023/06/10 03:54:25;;;;;;;26.40;23.90;;;;;;;;;;4948621;29;20516;-87
2023/06/10 03:56:57;;;;;;;25.63;23.23;;;;;;;;;;4948195;29;20472;-88
2023/06/10 03:59:29;;;;;;;27.07;24.37;;;;;;;;;;4943378;29;20809;-88
2023/06/10 04:01:59;;;;;;;26.07;23.43;;;;;;;;;;4938732;29;20466;-89
2023/06/10 04:04:30;;;;;;;25.90;21.70;;;;;;;;;;5099748;23;20618;-90
2023/06/10 04:07:08;;;;;;;26.60;23.20;;;;;;;;;;4926363;29;20463;-89
2023/06/10 04:09:44;;;;;;;25.80;23.27;;;;;;;;;;4931622;29;20493;-90
2023/06/10 04:12:22;;;;;;;25.80;23.23;;;;;;;;;;5291990;23;20506;-88
2023/06/10 04:15:06;;;;;;;30.20;24.30;;;;;;;;;;4930534;28;20702;-90
2023/06/10 04:17:40;;;;;;;26.63;24.07;;;;;;;;;;4937428;29;20497;-89
2023/06/10 04:20:16;;;;;;;27.37;23.13;;;;;;;;;;4951764;29;20463;-89
2023/06/10 04:25:26;;;;;;;26.30;23.53;;;;;;;;;;5199517;23;20634;-88
2023/06/10 04:27:56;;;;;;;24.67;22.27;;;;;;;;;;4971355;28;20473;-88
2023/06/10 04:30:31;;;;;;;24.83;22.33;;;;;;;;;;4955845;28;20456;-88
2023/06/10 04:33:02;;;;;;;24.20;21.90;;;;;;;;;;5510136;23;20973;-87
2023/06/10 04:35:32;;;;;;;26.73;24.23;;;;;;;;;;4942912;29;20449;-88
2023/06/10 04:38:03;;;;;;;24.03;21.57;;;;;;;;;;4942795;29;20871;-88
2023/06/10 04:40:41;;;;;;;23.60;21.47;;;;;;;;;;4938680;29;20952;-87
2023/06/10 04:43:17;;;;;;;24.10;21.97;;;;;;;;;;5206806;23;21722;-91
2023/06/10 04:45:52;;;;;;;25.97;23.53;;;;;;;;;;4900940;29;20417;-86
2023/06/10 04:51:37;;;;;;;25.47;22.93;;;;;;;;;;5428082;23;20270;-90
2023/06/10 04:54:21;;;;;;;;;;;;;;;;;;;;;
2023/06/10 04:56:57;;;;;;;25.40;22.77;;;;;;;;;;5094343;23;20528;-84
2023/06/10 04:59:29;;;;;;;24.37;22.27;;;;;;;;;;4959840;28;20439;-86
2023/06/10 05:01:59;;;;;;;25.40;22.80;;;;;;;;;;4968149;28;20651;-87
2023/06/10 05:04:31;;;;;;;25.33;22.93;;;;;;;;;;4966415;29;20411;-88
2023/06/10 05:07:06;;;;;;;23.10;21.00;;;;;;;;;;4963139;28;20809;-84
2023/06/10 05:09:34;;;;;;;23.07;20.80;;;;;;;;;;4964014;28;20443;-84
2023/06/10 05:12:06;;;;;;;23.77;21.40;;;;;;;;;;4960650;29;20435;-85
2023/06/10 05:14:34;;;;;;;23.23;21.13;;;;;;;;;;4962310;28;20478;-87
2023/06/10 05:17:02;;;;;;;24.57;22.17;;;;;;;;;;5137479;23;20463;-87
2023/06/10 05:19:38;;;;;;;24.90;22.40;;;;;;;;;;4945685;29;20437;-86
2023/06/10 05:22:06;;;;;;;23.07;20.97;;;;;;;;;;4943546;29;20438;-88
2023/06/10 05:24:33;;;;;;;24.03;21.93;;;;;;;;;;4947222;29;20502;-87
2023/06/10 05:27:03;;;;;;;21.63;19.73;;;;;;;;;;4947088;29;20449;-87
2023/06/10 05:29:36;;;;;;;22.03;19.90;;;;;;;;;;4949066;28;20656;-87
2023/06/10 05:32:16;;;;;;;21.60;19.73;;;;;;;;;;4950607;29;20435;-84
2023/06/10 05:34:53;;;;;;;21.47;19.47;;;;;;;;;;4955232;28;20400;-84
2023/06/10 05:37:21;;;;;;;20.60;18.50;;;;;;;;;;4955893;28;20469;-84
2023/06/10 05:39:57;;;;;;;24.57;18.57;;;;;;;;;;4957483;28;20448;-82
2023/06/10 05:45:34;;;;;;;19.40;17.57;;;;;;;;;;5134586;23;20556;-84
2023/06/10 05:48:08;;;;;;;19.77;17.87;;;;;;;;;;4904129;29;20419;-87
2023/06/10 05:51:05;;;;;;;18.67;16.87;;;;;;;;;;4915883;29;20426;-86
2023/06/10 05:53:46;;;;;;;18.37;16.73;;;;;;;;;;4909425;29;20504;-84
2023/06/10 05:56:22;;;;;;;19.70;17.70;;;;;;;;;;4906075;29;20486;-84
2023/06/10 05:58:49;;;;;;;16.27;14.77;;;;;;;;;;4907502;29;20794;-90
2023/06/10 06:01:28;;;;;;;18.60;16.60;;;;;;;;;;4910969;29;20442;-86
2023/06/10 06:03:56;;;;;;;17.27;15.60;;;;;;;;;;4908588;29;20474;-83
2023/06/10 06:06:25;;;;;;;18.27;16.73;;;;;;;;;;4910301;29;20526;-84
2023/06/10 06:08:52;;;;;;;16.93;15.23;;;;;;;;;;4910478;29;20426;-83
2023/06/10 06:11:22;;;;;;;18.17;16.57;;;;;;;;;;4902424;29;20488;-86
2023/06/10 06:13:56;;;;;;;18.07;16.57;;;;;;;;;;4907202;29;20443;-84
2023/06/10 06:16:24;;;;;;;16.83;15.10;;;;;;;;;;4909143;29;20444;-90
2023/06/10 06:18:52;;;;;;;19.47;17.87;;;;;;;;;;4906815;29;20458;-89
2023/06/10 06:21:26;;;;;;;17.90;16.10;;;;;;;;;;4905885;29;20479;-86
2023/06/10 06:23:54;;;;;;;16.60;15.00;;;;;;;;;;4907411;29;20434;-83
2023/06/10 06:26:26;;;;;;;18.77;16.00;;;;;;;;;;4904928;29;20430;-89
2023/06/10 06:28:54;;;;;;;15.40;14.13;;;;;;;;;;4906696;29;20742;-83
2023/06/10 06:31:36;;;;;;;17.93;16.37;;;;;;;;;;4906281;29;20988;-88
2023/06/10 06:34:15;;;;;;;19.03;16.90;;;;;;;;;;4913997;29;20430;-90
2023/06/10 06:39:50;;;;;;;15.83;14.40;;;;;;;;;;5055977;23;20479;-83
2023/06/10 06:42:30;;;;;;;17.50;15.97;;;;;;;;;;5077964;23;20776;-89
2023/06/10 06:45:00;;;;;;;18.03;16.33;;;;;;;;;;4926538;29;20459;-89
2023/06/10 06:47:30;;;;;;;16.93;15.43;;;;;;;;;;4989427;23;20484;-85
2023/06/10 06:50:01;;;;;;;18.40;16.77;;;;;;;;;;4942819;29;20440;-86
2023/06/10 06:52:34;;;;;;;18.00;16.30;;;;;;;;;;4945068;29;20413;-90
2023/06/10 06:55:18;;;;;;;16.33;14.60;;;;;;;;;;4938794;29;20517;-86
2023/06/10 06:57:49;;;;;;;17.60;15.97;;;;;;;;;;4943010;29;20455;-87
2023/06/10 07:00:16;;;;;;;17.70;14.63;;;;;;;;;;4936517;29;20435;-86
2023/06/10 07:02:54;;;;;;;20.33;16.60;;;;;;;;;;4943498;29;20497;-87
2023/06/10 07:05:29;;;;;;;16.73;15.30;;;;;;;;;;4943905;29;20464;-88
2023/06/10 07:08:02;;;;;;;18.47;16.77;;;;;;;;;;4942184;29;20631;-88
2023/06/10 07:10:31;;;;;;;18.93;17.07;;;;;;;;;;4939543;29;20635;-87
2023/06/10 07:13:00;;;;;;;19.33;17.47;;;;;;;;;;5267828;23;21075;-83
2023/06/10 07:15:50;;;;;;;17.93;16.20;;;;;;;;;;4945369;29;20477;-87
2023/06/10 07:18:18;;;;;;;18.53;16.80;;;;;;;;;;4928793;29;20449;-81
2023/06/10 07:20:45;;;;;;;18.07;16.53;;;;;;;;;;4937076;29;20435;-85
2023/06/10 07:23:13;;;;;;;18.73;15.30;;;;;;;;;;5379057;23;20473;-87
2023/06/10 07:26:03;;;;;;;17.60;15.90;;;;;;;;;;4996056;23;20703;-87
2023/06/10 07:28:37;;;;;;;18.40;16.30;;;;;;;;;;4952227;23;20494;-85
2023/06/10 07:31:11;;;;;;;17.40;15.80;;;;;;;;;;4932288;29;20413;-87
2023/06/10 07:33:43;;;;;;;18.90;17.30;;;;;;;;;;5038787;23;20493;-86
2023/06/10 07:36:37;;;;;;;22.27;15.90;;;;;;;;;;5179054;23;20455;-89
2023/06/10 07:39:07;;;;;;;15.43;14.00;;;;;;;;;;4961177;28;20487;-88
2023/06/10 07:41:41;;;;;;;16.50;14.77;;;;;;;;;;4954570;28;20467;-86
2023/06/10 07:44:09;;;;;;;16.07;14.60;;;;;;;;;;4951863;29;20640;-82
2023/06/10 07:46:39;;;;;;;16.13;14.50;;;;;;;;;;4954570;28;20429;-87
2023/06/10 07:49:16;;;;;;;15.37;14.03;;;;;;;;;;4970741;28;20432;-83
2023/06/10 07:51:44;;;;;;;15.93;14.23;;;;;;;;;;4960406;28;20419;-83
2023/06/10 07:54:26;;;;;;;16.90;15.10;;;;;;;;;;4960531;28;20442;-83
2023/06/10 07:57:00;;;;;;;15.50;14.10;;;;;;;;;;4958891;29;20420;-86
2023/06/10 07:59:30;;;;;;;14.87;13.43;;;;;;;;;;4950565;29;20509;-83
2023/06/10 08:01:57;;;;;;;15.53;14.17;;;;;;;;;;4963332;29;20431;-85
2023/06/10 08:04:24;;;;;;;15.63;14.23;;;;;;;;;;4963499;28;20459;-86
2023/06/10 08:07:13;;;;;;;14.03;12.73;;;;;;;;;;4948022;29;20445;-82
2023/06/10 08:09:40;;;;;;;14.37;12.93;;;;;;;;;;4952034;29;20449;-86
2023/06/10 08:12:08;;;;;;;15.63;14.03;;;;;;;;;;4961526;29;20467;-88
2023/06/10 08:14:41;;;;;;;13.20;11.87;;;;;;;;;;4959710;28;20421;-87
2023/06/10 08:17:14;;;;;;;15.20;13.30;;;;;;;;;;4953419;29;20452;-86
2023/06/10 08:19:45;;;;;;;14.17;12.80;;;;;;;;;;4967435;29;20452;-85
2023/06/10 08:22:26;;;;;;;13.70;12.33;;;;;;;;;;4969269;28;20426;-89
2023/06/10 08:24:56;;;;;;;13.83;12.50;;;;;;;;;;4959367;28;20445;-83
2023/06/10 08:27:26;;;;;;;13.57;12.23;;;;;;;;;;4961222;28;20454;-87
2023/06/10 08:32:38;;;;;;;20.13;12.77;;;;;;;;;;4926362;29;20493;-86
2023/06/10 08:35:07;;;;;;;14.87;11.53;;;;;;;;;;4927671;29;20447;-85
2023/06/10 08:37:48;;;;;;;12.07;10.87;;;;;;;;;;4915252;29;20483;-86
2023/06/10 08:40:28;;;;;;;10.77;9.93;;;;;;;;;;4928494;29;20406;-85
2023/06/10 08:43:06;;;;;;;11.70;10.43;;;;;;;;;;4929488;29;20413;-87
2023/06/10 08:45:43;;;;;;;10.03;9.23;;;;;;;;;;4927394;29;20443;-84
2023/06/10 08:48:13;;;;;;;10.20;9.23;;;;;;;;;;4928074;29;21030;-84
2023/06/10 08:50:58;;;;;;;14.30;10.13;;;;;;;;;;4918868;29;20422;-88
2023/06/10 08:53:30;;;;;;;10.30;9.50;;;;;;;;;;4929623;29;20459;-84
2023/06/10 08:56:03;;;;;;;11.13;10.10;;;;;;;;;;4909870;29;20614;-89
2023/06/10 08:58:33;;;;;;;11.80;10.63;;;;;;;;;;4927037;29;20469;-82
2023/06/10 09:01:04;;;;;;;12.27;11.37;;;;;;;;;;4927601;29;20885;-89
2023/06/10 09:03:33;;;;;;;10.80;9.90;;;;;;;;;;4911519;29;20467;-89
2023/06/10 09:06:01;;;;;;;9.60;8.70;;;;;;;;;;4925722;29;20435;-86
2023/06/10 09:08:28;;;;;;;12.33;10.23;;;;;;;;;;4908702;29;20455;-83
2023/06/10 09:10:58;;;;;;;11.50;10.57;;;;;;;;;;4924603;29;20462;-87
2023/06/10 09:13:33;;;;;;;11.47;10.57;;;;;;;;;;4921776;29;20537;-86
2023/06/10 09:16:02;;;;;;;12.77;11.30;;;;;;;;;;4926803;29;20459;-85
2023/06/10 09:18:29;;;;;;;11.50;10.70;;;;;;;;;;4928582;29;20554;-81
2023/06/10 09:20:56;;;;;;;12.03;10.90;;;;;;;;;;4928405;29;20451;-86
2023/06/10 09:23:27;;;;;;;11.37;10.40;;;;;;;;;;4921677;29;20411;-86
2023/06/10 09:25:58;;;;;;;11.80;10.80;;;;;;;;;;4928339;29;20455;-86
2023/06/10 09:28:27;;;;;;;11.93;10.63;;;;;;;;;;5066801;23;20478;-85
2023/06/10 09:31:03;;;;;;;9.63;8.73;;;;;;;;;;4956630;29;20411;-84
2023/06/10 09:33:33;;;;;;;11.73;10.60;;;;;;;;;;4952395;29;20493;-86
2023/06/10 09:36:02;;;;;;;10.50;9.73;;;;;;;;;;4950719;29;20493;-85
2023/06/10 09:38:31;;;;;;;12.37;11.40;;;;;;;;;;4949291;29;20474;-88
2023/06/10 09:41:01;;;;;;;9.50;8.70;;;;;;;;;;4976463;23;20506;-86
2023/06/10 09:43:42;;;;;;;11.60;10.87;;;;;;;;;;4891539;29;20483;-86
2023/06/10 09:46:19;;;;;;;11.40;10.30;;;;;;;;;;4904717;29;20445;-86
2023/06/10 09:48:47;;;;;;;11.97;11.17;;;;;;;;;;4907279;29;20451;-85
2023/06/10 09:51:16;;;;;;;11.93;11.13;;;;;;;;;;4907487;29;20827;-84
2023/06/10 09:53:51;;;;;;;13.43;12.33;;;;;;;;;;4892684;29;20432;-81
2023/06/10 09:56:19;;;;;;;13.10;12.10;;;;;;;;;;4911660;29;20467;-85
2023/06/10 09:58:46;;;;;;;13.37;11.47;;;;;;;;;;4906523;29;20483;-82
2023/06/10 10:01:15;;;;;;;12.37;10.83;;;;;;;;;;4901595;29;20434;-84
2023/06/10 10:03:48;;;;;;;11.90;10.80;;;;;;;;;;4901428;29;20448;-85
2023/06/10 10:06:18;;;;;;;11.27;10.27;;;;;;;;;;4905558;29;20487;-81
2023/06/10 10:08:46;;;;;;;11.53;10.53;;;;;;;;;;4907787;29;20480;-89
2023/06/10 10:11:16;;;;;;;12.70;11.70;;;;;;;;;;4912782;29;20451;-88
2023/06/10 10:13:53;;;;;;;13.67;12.47;;;;;;;;;;4905817;29;20471;-84
2023/06/10 10:16:44;;;;;;;14.40;13.07;;;;;;;;;;4909457;29;20515;-85
2023/06/10 10:19:24;;;;;;;15.63;14.10;;;;;;;;;;4904085;29;20467;-84
2023/06/10 10:21:54;;;;;;;16.03;14.73;;;;;;;;;;4902179;29;20704;-86
2023/06/10 10:24:23;;;;;;;17.20;15.90;;;;;;;;;;4905592;29;20548;-82
2023/06/10 10:26:56;;;;;;;15.83;14.60;;;;;;;;;;4892167;29;20432;-88
2023/06/10 10:29:35;;;;;;;20.30;14.60;;;;;;;;;;4901859;29;20728;-85
2023/06/10 10:32:04;;;;;;;15.63;14.23;;;;;;;;;;4906808;29;20475;-81
2023/06/10 10:34:36;;;;;;;14.93;13.73;;;;;;;;;;4907877;29;20429;-88
2023/06/10 10:37:06;;;;;;;13.27;11.97;;;;;;;;;;4905451;29;20444;-84
2023/06/10 10:39:34;;;;;;;13.87;12.67;;;;;;;;;;4908611;29;20843;-83
2023/06/10 10:42:09;;;;;;;13.90;12.60;;;;;;;;;;4907207;29;20463;-88
2023/06/10 10:44:38;;;;;;;14.27;13.07;;;;;;;;;;4903741;29;20422;-84
2023/06/10 10:47:08;;;;;;;13.00;11.90;;;;;;;;;;4909140;29;20455;-82
2023/06/10 10:49:38;;;;;;;12.03;11.13;;;;;;;;;;4906826;29;20445;-83
2023/06/10 10:52:11;;;;;;;11.63;10.67;;;;;;;;;;4904042;29;20480;-83
2023/06/10 10:54:43;;;;;;;11.90;10.90;;;;;;;;;;4918541;29;20462;-86
2023/06/10 10:57:23;;;;;;;11.30;10.13;;;;;;;;;;4919394;29;20455;-82
2023/06/10 11:00:18;;;;;;;10.20;9.37;;;;;;;;;;4905941;29;20487;-88
2023/06/10 11:02:55;;;;;;;11.40;10.30;;;;;;;;;;4891905;29;21080;-88
2023/06/10 11:05:48;;;;;;;11.17;10.17;;;;;;;;;;4889643;29;20754;-86
2023/06/10 11:08:16;;;;;;;10.50;9.47;;;;;;;;;;4901664;29;20436;-82
2023/06/10 11:10:54;;;;;;;9.70;8.90;;;;;;;;;;4915140;29;20455;-83
2023/06/10 11:13:30;;;;;;;11.60;10.70;;;;;;;;;;4911658;29;20455;-82
2023/06/10 11:16:04;;;;;;;9.83;9.13;;;;;;;;;;4910160;29;20437;-86
2023/06/10 11:18:48;;;;;;;10.60;9.60;;;;;;;;;;4906838;29;20864;-85
2023/06/10 11:21:32;;;;;;;11.03;10.13;;;;;;;;;;4901723;29;20458;-85
2023/06/10 11:24:14;;;;;;;10.60;9.70;;;;;;;;;;4914060;29;20422;-82
2023/06/10 11:26:53;;;;;;;9.17;8.53;;;;;;;;;;4904329;29;20538;-87
2023/06/10 11:29:24;;;;;;;9.97;9.13;;;;;;;;;;4886128;29;21046;-86
2023/06/10 11:31:59;;;;;;;9.17;8.47;;;;;;;;;;4891767;29;20471;-85
2023/06/10 11:34:27;;;;;;;9.70;9.00;;;;;;;;;;4903793;29;20625;-84
2023/06/10 11:37:05;;;;;;;;;;;;;;;;;;;;;
2023/06/10 11:39:36;;;;;;;8.97;8.10;;;;;;;;;;4910333;29;20487;-87
2023/06/10 11:42:11;;;;;;;11.43;8.77;;;;;;;;;;4891615;29;20480;-86
2023/06/10 11:44:38;;;;;;;17.23;8.13;;;;;;;;;;4910219;29;20467;-84
2023/06/10 11:47:06;;;;;;;9.43;8.53;;;;;;;;;;4910314;29;20444;-86
2023/06/10 11:49:36;;;;;;;10.17;8.97;;;;;;;;;;4891947;29;20484;-86
2023/06/10 11:52:05;;;;;;;8.93;8.33;;;;;;;;;;4893571;29;20451;-82
2023/06/10 11:54:36;;;;;;;8.77;8.07;;;;;;;;;;4911331;29;20456;-83
2023/06/10 11:57:08;;;;;;;8.50;7.70;;;;;;;;;;4915978;29;20948;-84
2023/06/10 11:59:36;;;;;;;12.27;8.60;;;;;;;;;;4892233;29;20476;-87
2023/06/10 12:02:05;;;;;;;8.87;8.07;;;;;;;;;;4893098;29;20668;-84
2023/06/10 12:04:34;;;;;;;14.73;7.93;;;;;;;;;;4892056;29;20743;-80
2023/06/10 12:07:05;;;;;;;11.50;8.93;;;;;;;;;;4907324;29;20448;-83
2023/06/10 12:09:40;;;;;;;8.77;7.70;;;;;;;;;;4892432;29;20476;-83
2023/06/10 12:12:14;;;;;;;8.50;7.53;;;;;;;;;;4906807;29;20578;-79
2023/06/10 12:14:58;;;;;;;7.53;6.77;;;;;;;;;;4891979;29;20460;-87
2023/06/10 12:17:33;;;;;;;7.93;7.30;;;;;;;;;;4917241;29;20432;-87
2023/06/10 12:20:33;;;;;;;8.03;7.40;;;;;;;;;;4909362;29;20546;-83
2023/06/10 12:23:08;;;;;;;7.97;7.27;;;;;;;;;;4908260;29;20436;-84
2023/06/10 12:25:38;;;;;;;9.47;8.77;;;;;;;;;;4914908;29;20467;-84
2023/06/10 12:28:10;;;;;;;11.20;10.30;;;;;;;;;;4924902;29;20448;-84
2023/06/10 12:30:38;;;;;;;14.73;11.40;;;;;;;;;;4920534;29;20505;-84
2023/06/10 12:33:33;;;;;;;12.73;11.73;;;;;;;;;;4919187;29;20452;-83
2023/06/10 12:36:24;;;;;;;13.50;10.07;;;;;;;;;;4990326;23;20821;-82
2023/06/10 12:38:52;;;;;;;11.17;10.20;;;;;;;;;;4942786;29;20600;-86
2023/06/10 12:41:20;;;;;;;8.90;8.20;;;;;;;;;;4946527;29;20465;-85
2023/06/10 12:43:49;;;;;;;8.57;7.97;;;;;;;;;;4945880;29;20779;-85
2023/06/10 12:46:20;;;;;;;9.77;8.87;;;;;;;;;;4933986;29;20450;-88
2023/06/10 12:48:54;;;;;;;8.70;8.00;;;;;;;;;;4930080;29;20454;-85
2023/06/10 12:51:22;;;;;;;8.00;7.30;;;;;;;;;;4929031;29;20450;-82
2023/06/10 12:53:50;;;;;;;7.10;6.60;;;;;;;;;;4931015;29;20466;-87
2023/06/10 12:56:17;;;;;;;7.73;7.03;;;;;;;;;;4951316;29;20506;-85
2023/06/10 12:58:44;;;;;;;8.07;7.27;;;;;;;;;;4946836;29;20482;-88
2023/06/10 13:01:14;;;;;;;8.00;7.13;;;;;;;;;;4953682;29;20498;-83
2023/06/10 13:03:44;;;;;;;8.23;7.10;;;;;;;;;;4930578;29;20462;-81
2023/06/10 13:06:14;;;;;;;7.73;7.13;;;;;;;;;;4932556;29;20629;-83
2023/06/10 13:08:47;;;;;;;13.10;7.43;;;;;;;;;;4942912;29;20447;-85
2023/06/10 13:11:16;;;;;;;9.03;7.37;;;;;;;;;;4946983;29;20466;-82
2023/06/10 13:13:46;;;;;;;7.80;7.20;;;;;;;;;;4952277;29;20411;-79
2023/06/10 13:16:18;;;;;;;6.90;6.20;;;;;;;;;;4939231;29;20431;-86
2023/06/10 13:18:48;;;;;;;7.20;6.50;;;;;;;;;;4945360;29;20458;-86
2023/06/10 13:21:26;;;;;;;8.23;7.53;;;;;;;;;;4947158;29;20465;-89
2023/06/10 13:23:53;;;;;;;7.67;6.93;;;;;;;;;;4942494;29;20469;-83
2023/06/10 13:26:23;;;;;;;5.87;5.47;;;;;;;;;;4942431;29;20456;-85
2023/06/10 13:28:55;;;;;;;7.53;6.90;;;;;;;;;;4928420;29;20461;-87
2023/06/10 13:31:29;;;;;;;6.33;5.77;;;;;;;;;;4930209;29;20421;-83
2023/06/10 13:33:59;;;;;;;7.30;6.70;;;;;;;;;;4939413;29;20408;-83
2023/06/10 13:36:42;;;;;;;5.70;5.30;;;;;;;;;;4945681;29;20458;-83
2023/06/10 13:39:09;;;;;;;6.23;5.83;;;;;;;;;;4945039;29;20792;-84
2023/06/10 13:41:39;;;;;;;8.50;6.30;;;;;;;;;;4939219;29;20430;-86
2023/06/10 13:44:13;;;;;;;7.10;6.47;;;;;;;;;;4941333;29;20830;-88
2023/06/10 13:46:44;;;;;;;5.97;5.57;;;;;;;;;;4943650;29;20534;-85
2023/06/10 13:49:16;;;;;;;6.50;5.90;;;;;;;;;;4949723;29;20468;-86
2023/06/10 13:51:44;;;;;;;5.57;5.03;;;;;;;;;;4946182;29;20692;-87
2023/06/10 13:54:18;;;;;;;5.90;5.23;;;;;;;;;;4929505;29;20491;-86
2023/06/10 13:56:48;;;;;;;6.57;6.17;;;;;;;;;;4944613;29;20461;-86
2023/06/10 13:59:25;;;;;;;6.53;5.93;;;;;;;;;;4927511;29;20479;-88
2023/06/10 14:02:16;;;;;;;6.33;5.93;;;;;;;;;;4925098;29;20472;-84
2023/06/10 14:04:47;;;;;;;6.20;5.77;;;;;;;;;;4923846;29;21181;-86
2023/06/10 14:07:20;;;;;;;11.50;5.90;;;;;;;;;;4943589;29;20514;-83
2023/06/10 14:09:50;;;;;;;6.00;5.50;;;;;;;;;;4944685;29;20794;-84
2023/06/10 14:12:18;;;;;;;5.60;5.20;;;;;;;;;;4929632;29;20548;-84
2023/06/10 14:14:45;;;;;;;5.80;5.30;;;;;;;;;;4946494;28;20476;-86
2023/06/10 14:17:26;;;;;;;6.67;6.17;;;;;;;;;;4944998;29;20456;-83
2023/06/10 14:19:55;;;;;;;6.17;5.67;;;;;;;;;;4953198;28;20628;-85
2023/06/10 14:22:25;;;;;;;5.20;4.80;;;;;;;;;;4928325;29;20441;-84
2023/06/10 14:24:54;;;;;;;5.03;4.63;;;;;;;;;;4950144;29;20493;-82
2023/06/10 14:27:22;;;;;;;5.33;4.83;;;;;;;;;;4947730;29;20462;-85
2023/06/10 14:29:54;;;;;;;6.50;5.40;;;;;;;;;;4928451;29;20779;-85
2023/06/10 14:32:22;;;;;;;6.07;5.63;;;;;;;;;;4943881;29;20477;-84
2023/06/10 14:34:58;;;;;;;5.60;5.13;;;;;;;;;;4935766;29;20469;-83
2023/06/10 14:37:28;;;;;;;5.40;4.90;;;;;;;;;;4951940;29;20481;-84
2023/06/10 14:40:00;;;;;;;5.87;5.30;;;;;;;;;;4923403;29;20493;-87
2023/06/10 14:42:28;;;;;;;6.10;5.50;;;;;;;;;;4943533;29;20446;-84
2023/06/10 14:44:56;;;;;;;6.90;6.20;;;;;;;;;;4942459;29;20458;-81
2023/06/10 14:47:26;;;;;;;7.63;5.60;;;;;;;;;;4925904;29;20523;-87
2023/06/10 14:49:53;;;;;;;6.90;6.20;;;;;;;;;;4941167;29;20462;-83
2023/06/10 14:52:21;;;;;;;6.23;5.40;;;;;;;;;;4931937;29;20456;-84
2023/06/10 14:54:48;;;;;;;7.27;5.43;;;;;;;;;;4933518;29;20428;-80
2023/06/10 14:57:16;;;;;;;5.60;5.07;;;;;;;;;;4922509;29;20454;-86
2023/06/10 14:59:51;;;;;;;7.47;5.70;;;;;;;;;;4936773;29;20478;-86
2023/06/10 15:02:20;;;;;;;6.20;5.60;;;;;;;;;;4944748;29;20496;-86
2023/06/10 15:04:48;;;;;;;8.53;5.60;;;;;;;;;;4943911;29;20438;-80
2023/06/10 15:07:21;;;;;;;5.90;4.87;;;;;;;;;;4943264;29;20553;-85
2023/06/10 15:09:50;;;;;;;5.97;5.37;;;;;;;;;;4919083;29;20673;-82
2023/06/10 15:12:27;;;;;;;10.37;6.03;;;;;;;;;;4943189;29;20431;-82
2023/06/10 15:14:55;;;;;;;7.30;5.63;;;;;;;;;;4942990;29;20649;-86
2023/06/10 15:17:27;;;;;;;5.73;5.33;;;;;;;;;;4926400;29;20614;-84
2023/06/10 15:19:55;;;;;;;8.30;6.03;;;;;;;;;;4923841;29;21640;-84
2023/06/10 15:22:25;;;;;;;5.27;4.87;;;;;;;;;;4941457;29;20820;-87